sensor_id;sensor_type;location;lat;lon;timestamp;pressure;altitude;pressure_sealevel;temperature;humidity
34235;BME280;20500;49.856;20.290;2023-03-23T00:00:32;98490.86;;;9.43;66.91
34235;BME280;20500;49.856;20.290;2023-03-23T00:03:38;98487.86;;;9.41;67.05
34235;BME280;20500;49.856;20.290;2023-03-23T00:06:43;98489.62;;;9.41;67.07
34235;BME280;20500;49.856;20.290;2023-03-23T00:09:48;98489.29;;;9.41;67.01
34235;BME280;20500;49.856;20.290;2023-03-23T00:12:57;98484.73;;;9.40;66.95
34235;BME280;20500;49.856;20.290;2023-03-23T00:16:06;98484.27;;;9.39;66.97
34235;BME280;20500;49.856;20.290;2023-03-23T00:19:21;98484.60;;;9.39;66.99
34235;BME280;20500;49.856;20.290;2023-03-23T00:22:26;98482.58;;;9.42;66.98
34235;BME280;20500;49.856;20.290;2023-03-23T00:25:32;98484.27;;;9.45;66.95
34235;BME280;20500;49.856;20.290;2023-03-23T00:28:37;98485.16;;;9.45;66.91
34235;BME280;20500;49.856;20.290;2023-03-23T00:31:43;98481.85;;;9.44;66.80
34235;BME280;20500;49.856;20.290;2023-03-23T00:34:50;98483.29;;;9.42;66.93
34235;BME280;20500;49.856;20.290;2023-03-23T00:37:54;98484.23;;;9.41;66.98
34235;BME280;20500;49.856;20.290;2023-03-23T00:40:59;98484.60;;;9.39;66.89
34235;BME280;20500;49.856;20.290;2023-03-23T00:44:06;98483.14;;;9.40;66.92
34235;BME280;20500;49.856;20.290;2023-03-23T00:47:13;98476.58;;;9.40;66.98
34235;BME280;20500;49.856;20.290;2023-03-23T00:50:20;98471.19;;;9.41;66.93
34235;BME280;20500;49.856;20.290;2023-03-23T00:53:24;98466.38;;;9.43;66.88
34235;BME280;20500;49.856;20.290;2023-03-23T00:56:29;98463.25;;;9.46;66.75
34235;BME280;20500;49.856;20.290;2023-03-23T00:59:35;98462.52;;;9.49;66.90
34235;BME280;20500;49.856;20.290;2023-03-23T01:02:40;98462.83;;;9.52;67.02
34235;BME280;20500;49.856;20.290;2023-03-23T01:05:47;98460.94;;;9.56;67.12
34235;BME280;20500;49.856;20.290;2023-03-23T01:08:55;98457.33;;;9.59;67.01
34235;BME280;20500;49.856;20.290;2023-03-23T01:12:00;98452.23;;;9.62;67.01
34235;BME280;20500;49.856;20.290;2023-03-23T01:15:06;98450.40;;;9.64;66.94
34235;BME280;20500;49.856;20.290;2023-03-23T01:18:12;98450.36;;;9.64;67.06
34235;BME280;20500;49.856;20.290;2023-03-23T01:21:20;98447.27;;;9.64;66.93
34235;BME280;20500;49.856;20.290;2023-03-23T01:24:25;98444.98;;;9.62;66.88
34235;BME280;20500;49.856;20.290;2023-03-23T01:27:30;98440.99;;;9.60;66.93
34235;BME280;20500;49.856;20.290;2023-03-23T01:30:35;98444.67;;;9.60;66.94
34235;BME280;20500;49.856;20.290;2023-03-23T01:33:41;98442.00;;;9.60;66.94
34235;BME280;20500;49.856;20.290;2023-03-23T01:36:46;98441.45;;;9.60;66.93
34235;BME280;20500;49.856;20.290;2023-03-23T01:39:51;98442.83;;;9.60;67.02
34235;BME280;20500;49.856;20.290;2023-03-23T01:42:56;98441.40;;;9.62;66.98
34235;BME280;20500;49.856;20.290;2023-03-23T01:46:00;98442.95;;;9.62;66.81
34235;BME280;20500;49.856;20.290;2023-03-23T01:49:09;98439.40;;;9.63;66.87
34235;BME280;20500;49.856;20.290;2023-03-23T01:52:18;98439.41;;;9.63;66.99
34235;BME280;20500;49.856;20.290;2023-03-23T01:55:26;98436.69;;;9.64;66.75
34235;BME280;20500;49.856;20.290;2023-03-23T01:58:33;98437.02;;;9.66;66.87
34235;BME280;20500;49.856;20.290;2023-03-23T02:01:39;98431.95;;;9.66;66.87
34235;BME280;20500;49.856;20.290;2023-03-23T02:04:48;98430.10;;;9.65;66.83
34235;BME280;20500;49.856;20.290;2023-03-23T02:07:55;98427.87;;;9.64;66.85
34235;BME280;20500;49.856;20.290;2023-03-23T02:11:14;98426.50;;;9.65;66.91
34235;BME280;20500;49.856;20.290;2023-03-23T02:14:19;98425.64;;;9.67;66.92
34235;BME280;20500;49.856;20.290;2023-03-23T02:17:30;98428.35;;;9.69;66.93
34235;BME280;20500;49.856;20.290;2023-03-23T02:24:44;98428.94;;;9.70;67.03
34235;BME280;20500;49.856;20.290;2023-03-23T02:28:08;98428.54;;;9.75;66.96
34235;BME280;20500;49.856;20.290;2023-03-23T02:31:56;98428.77;;;9.82;67.05
34235;BME280;20500;49.856;20.290;2023-03-23T02:35:10;98430.41;;;9.90;67.02
34235;BME280;20500;49.856;20.290;2023-03-23T02:38:17;98428.64;;;9.96;66.90
34235;BME280;20500;49.856;20.290;2023-03-23T02:41:29;98427.69;;;10.02;67.06
34235;BME280;20500;49.856;20.290;2023-03-23T02:44:37;98426.59;;;10.09;67.10
34235;BME280;20500;49.856;20.290;2023-03-23T02:47:43;98429.67;;;10.17;66.92
34235;BME280;20500;49.856;20.290;2023-03-23T02:50:52;98427.54;;;10.24;66.90
34235;BME280;20500;49.856;20.290;2023-03-23T02:53:58;98427.04;;;10.27;66.80
34235;BME280;20500;49.856;20.290;2023-03-23T02:57:02;98430.10;;;10.27;66.68
34235;BME280;20500;49.856;20.290;2023-03-23T03:00:11;98432.25;;;10.26;66.75
34235;BME280;20500;49.856;20.290;2023-03-23T03:03:19;98434.93;;;10.24;66.75
34235;BME280;20500;49.856;20.290;2023-03-23T03:06:30;98432.30;;;10.25;66.78
34235;BME280;20500;49.856;20.290;2023-03-23T03:09:44;98431.05;;;10.27;66.78
34235;BME280;20500;49.856;20.290;2023-03-23T03:12:57;98429.35;;;10.25;66.70
34235;BME280;20500;49.856;20.290;2023-03-23T03:16:10;98431.63;;;10.24;66.72
34235;BME280;20500;49.856;20.290;2023-03-23T03:19:22;98429.84;;;10.28;66.54
34235;BME280;20500;49.856;20.290;2023-03-23T03:22:30;98428.52;;;10.30;66.56
34235;BME280;20500;49.856;20.290;2023-03-23T03:25:36;98425.75;;;10.30;66.43
34235;BME280;20500;49.856;20.290;2023-03-23T03:28:41;98422.06;;;10.29;66.49
34235;BME280;20500;49.856;20.290;2023-03-23T03:31:49;98414.77;;;10.28;66.42
34235;BME280;20500;49.856;20.290;2023-03-23T03:34:55;98416.42;;;10.28;66.39
34235;BME280;20500;49.856;20.290;2023-03-23T03:38:06;98414.65;;;10.28;66.35
34235;BME280;20500;49.856;20.290;2023-03-23T03:41:12;98418.54;;;10.27;66.39
34235;BME280;20500;49.856;20.290;2023-03-23T03:44:17;98419.06;;;10.24;66.40
34235;BME280;20500;49.856;20.290;2023-03-23T03:47:21;98414.89;;;10.21;66.23
34235;BME280;20500;49.856;20.290;2023-03-23T03:50:26;98410.96;;;10.20;66.36
34235;BME280;20500;49.856;20.290;2023-03-23T03:53:32;98407.08;;;10.18;66.29
34235;BME280;20500;49.856;20.290;2023-03-23T03:56:37;98408.95;;;10.18;66.28
34235;BME280;20500;49.856;20.290;2023-03-23T03:59:43;98407.48;;;10.15;66.22
34235;BME280;20500;49.856;20.290;2023-03-23T04:02:50;98409.20;;;10.11;66.27
34235;BME280;20500;49.856;20.290;2023-03-23T04:05:57;98409.34;;;10.09;66.18
34235;BME280;20500;49.856;20.290;2023-03-23T04:09:04;98408.46;;;10.09;66.19
34235;BME280;20500;49.856;20.290;2023-03-23T04:12:11;98407.28;;;10.08;66.09
34235;BME280;20500;49.856;20.290;2023-03-23T04:15:16;98405.17;;;10.05;66.01
34235;BME280;20500;49.856;20.290;2023-03-23T04:18:21;98403.04;;;10.02;66.12
34235;BME280;20500;49.856;20.290;2023-03-23T04:21:27;98400.98;;;9.96;66.09
34235;BME280;20500;49.856;20.290;2023-03-23T04:24:33;98401.84;;;9.94;65.99
34235;BME280;20500;49.856;20.290;2023-03-23T04:27:39;98405.91;;;9.92;66.08
34235;BME280;20500;49.856;20.290;2023-03-23T04:30:47;98402.13;;;9.89;66.10
34235;BME280;20500;49.856;20.290;2023-03-23T04:33:56;98401.05;;;9.86;66.01
34235;BME280;20500;49.856;20.290;2023-03-23T04:37:03;98401.19;;;9.83;66.02
34235;BME280;20500;49.856;20.290;2023-03-23T04:40:10;98400.63;;;9.85;66.19
34235;BME280;20500;49.856;20.290;2023-03-23T04:43:17;98400.59;;;9.90;66.11
34235;BME280;20500;49.856;20.290;2023-03-23T04:46:27;98401.68;;;9.91;65.94
34235;BME280;20500;49.856;20.290;2023-03-23T04:49:33;98395.02;;;9.90;65.96
34235;BME280;20500;49.856;20.290;2023-03-23T04:52:39;98401.16;;;9.92;66.00
34235;BME280;20500;49.856;20.290;2023-03-23T04:55:48;98403.73;;;9.93;66.03
34235;BME280;20500;49.856;20.290;2023-03-23T04:58:53;98401.26;;;9.94;66.06
34235;BME280;20500;49.856;20.290;2023-03-23T05:01:58;98399.91;;;9.93;65.98
34235;BME280;20500;49.856;20.290;2023-03-23T05:05:04;98398.61;;;9.92;65.99
34235;BME280;20500;49.856;20.290;2023-03-23T05:08:09;98391.35;;;9.91;66.08
34235;BME280;20500;49.856;20.290;2023-03-23T05:11:14;98391.77;;;9.90;66.09
34235;BME280;20500;49.856;20.290;2023-03-23T05:14:19;98393.34;;;9.94;66.19
34235;BME280;20500;49.856;20.290;2023-03-23T05:17:24;98392.61;;;10.01;66.17
34235;BME280;20500;49.856;20.290;2023-03-23T05:20:29;98395.36;;;10.12;66.16
34235;BME280;20500;49.856;20.290;2023-03-23T05:23:34;98397.03;;;10.25;66.23
34235;BME280;20500;49.856;20.290;2023-03-23T05:26:39;98403.18;;;10.33;66.18
34235;BME280;20500;49.856;20.290;2023-03-23T05:29:44;98407.34;;;10.41;66.14
34235;BME280;20500;49.856;20.290;2023-03-23T05:32:52;98406.64;;;10.46;66.17
34235;BME280;20500;49.856;20.290;2023-03-23T05:35:57;98403.06;;;10.50;66.19
34235;BME280;20500;49.856;20.290;2023-03-23T05:39:01;98403.66;;;10.56;66.21
34235;BME280;20500;49.856;20.290;2023-03-23T05:42:07;98407.13;;;10.63;65.97
34235;BME280;20500;49.856;20.290;2023-03-23T05:45:13;98411.29;;;10.64;66.12
34235;BME280;20500;49.856;20.290;2023-03-23T05:48:18;98413.95;;;10.66;66.06
34235;BME280;20500;49.856;20.290;2023-03-23T05:51:23;98410.58;;;10.69;66.19
34235;BME280;20500;49.856;20.290;2023-03-23T05:54:28;98405.59;;;10.70;66.24
34235;BME280;20500;49.856;20.290;2023-03-23T05:57:33;98414.75;;;10.73;66.20
34235;BME280;20500;49.856;20.290;2023-03-23T06:00:39;98412.48;;;10.79;66.06
34235;BME280;20500;49.856;20.290;2023-03-23T06:03:44;98411.30;;;10.92;66.13
34235;BME280;20500;49.856;20.290;2023-03-23T06:06:49;98405.89;;;11.05;65.91
34235;BME280;20500;49.856;20.290;2023-03-23T06:09:55;98400.44;;;11.14;65.95
34235;BME280;20500;49.856;20.290;2023-03-23T06:13:00;98392.85;;;11.22;65.85
34235;BME280;20500;49.856;20.290;2023-03-23T06:16:06;98383.36;;;11.29;65.89
34235;BME280;20500;49.856;20.290;2023-03-23T06:19:12;98380.85;;;11.39;65.90
34235;BME280;20500;49.856;20.290;2023-03-23T06:22:16;98385.23;;;11.49;65.85
34235;BME280;20500;49.856;20.290;2023-03-23T06:25:21;98388.30;;;11.60;65.62
34235;BME280;20500;49.856;20.290;2023-03-23T06:28:27;98390.44;;;11.76;65.56
34235;BME280;20500;49.856;20.290;2023-03-23T06:31:35;98395.73;;;11.90;65.42
34235;BME280;20500;49.856;20.290;2023-03-23T06:34:40;98399.83;;;12.03;65.35
34235;BME280;20500;49.856;20.290;2023-03-23T06:37:46;98401.73;;;12.15;65.26
34235;BME280;20500;49.856;20.290;2023-03-23T06:40:54;98400.85;;;12.25;65.35
34235;BME280;20500;49.856;20.290;2023-03-23T06:44:00;98404.73;;;12.34;65.22
34235;BME280;20500;49.856;20.290;2023-03-23T06:47:06;98406.15;;;12.44;65.06
34235;BME280;20500;49.856;20.290;2023-03-23T06:50:12;98410.02;;;12.53;64.94
34235;BME280;20500;49.856;20.290;2023-03-23T06:53:17;98411.55;;;12.61;64.80
34235;BME280;20500;49.856;20.290;2023-03-23T06:56:21;98414.88;;;12.69;64.89
34235;BME280;20500;49.856;20.290;2023-03-23T06:59:27;98414.56;;;12.78;64.80
34235;BME280;20500;49.856;20.290;2023-03-23T07:02:32;98415.60;;;12.89;64.61
34235;BME280;20500;49.856;20.290;2023-03-23T07:05:37;98410.66;;;12.99;64.39
34235;BME280;20500;49.856;20.290;2023-03-23T07:08:42;98410.34;;;13.12;64.36
34235;BME280;20500;49.856;20.290;2023-03-23T07:11:48;98404.67;;;13.25;64.34
34235;BME280;20500;49.856;20.290;2023-03-23T07:14:55;98409.05;;;13.42;64.27
34235;BME280;20500;49.856;20.290;2023-03-23T07:18:00;98408.95;;;13.60;64.06
34235;BME280;20500;49.856;20.290;2023-03-23T07:21:06;98410.09;;;13.81;63.97
34235;BME280;20500;49.856;20.290;2023-03-23T07:24:13;98411.56;;;14.00;63.75
34235;BME280;20500;49.856;20.290;2023-03-23T07:27:18;98406.80;;;14.20;63.62
34235;BME280;20500;49.856;20.290;2023-03-23T07:30:23;98406.11;;;14.39;63.36
34235;BME280;20500;49.856;20.290;2023-03-23T07:33:29;98415.27;;;14.54;63.07
34235;BME280;20500;49.856;20.290;2023-03-23T07:36:35;98419.38;;;14.67;62.99
34235;BME280;20500;49.856;20.290;2023-03-23T07:39:41;98420.25;;;14.78;62.61
34235;BME280;20500;49.856;20.290;2023-03-23T07:42:52;98420.40;;;14.85;62.49
34235;BME280;20500;49.856;20.290;2023-03-23T07:45:58;98418.39;;;14.87;62.29
34235;BME280;20500;49.856;20.290;2023-03-23T07:49:04;98421.22;;;14.92;62.07
34235;BME280;20500;49.856;20.290;2023-03-23T07:52:09;98419.27;;;14.96;61.98
34235;BME280;20500;49.856;20.290;2023-03-23T07:55:14;98418.90;;;14.99;61.68
34235;BME280;20500;49.856;20.290;2023-03-23T07:58:21;98416.24;;;15.01;61.50
34235;BME280;20500;49.856;20.290;2023-03-23T08:01:27;98415.47;;;15.02;61.31
34235;BME280;20500;49.856;20.290;2023-03-23T08:04:32;98417.18;;;15.04;61.20
34235;BME280;20500;49.856;20.290;2023-03-23T08:07:41;98414.30;;;15.08;61.11
34235;BME280;20500;49.856;20.290;2023-03-23T08:10:45;98412.73;;;15.13;60.86
34235;BME280;20500;49.856;20.290;2023-03-23T08:13:51;98418.36;;;15.16;60.70
34235;BME280;20500;49.856;20.290;2023-03-23T08:16:56;98414.49;;;15.19;60.53
34235;BME280;20500;49.856;20.290;2023-03-23T08:20:02;98412.90;;;15.21;60.31
34235;BME280;20500;49.856;20.290;2023-03-23T08:23:12;98415.74;;;15.20;60.14
34235;BME280;20500;49.856;20.290;2023-03-23T08:26:18;98421.41;;;15.23;60.10
34235;BME280;20500;49.856;20.290;2023-03-23T08:29:23;98418.97;;;15.29;60.05
34235;BME280;20500;49.856;20.290;2023-03-23T08:32:28;98419.60;;;15.39;60.01
34235;BME280;20500;49.856;20.290;2023-03-23T08:35:33;98422.19;;;15.53;59.71
34235;BME280;20500;49.856;20.290;2023-03-23T08:38:39;98425.03;;;15.62;59.57
34235;BME280;20500;49.856;20.290;2023-03-23T08:41:43;98429.13;;;15.71;59.55
34235;BME280;20500;49.856;20.290;2023-03-23T08:44:48;98430.12;;;15.83;59.37
34235;BME280;20500;49.856;20.290;2023-03-23T08:47:54;98430.20;;;15.98;59.16
34235;BME280;20500;49.856;20.290;2023-03-23T08:50:59;98428.10;;;16.14;59.07
34235;BME280;20500;49.856;20.290;2023-03-23T08:54:04;98427.39;;;16.28;58.95
34235;BME280;20500;49.856;20.290;2023-03-23T08:57:10;98421.38;;;16.40;58.77
34235;BME280;20500;49.856;20.290;2023-03-23T09:00:18;98418.21;;;16.45;58.53
34235;BME280;20500;49.856;20.290;2023-03-23T09:03:23;98418.26;;;16.45;58.09
34235;BME280;20500;49.856;20.290;2023-03-23T09:06:28;98417.49;;;16.45;58.01
34235;BME280;20500;49.856;20.290;2023-03-23T09:09:33;98424.48;;;16.47;57.70
34235;BME280;20500;49.856;20.290;2023-03-23T09:12:39;98423.48;;;16.48;57.64
34235;BME280;20500;49.856;20.290;2023-03-23T09:15:44;98421.89;;;16.50;57.32
34235;BME280;20500;49.856;20.290;2023-03-23T09:18:49;98424.80;;;16.56;57.39
34235;BME280;20500;49.856;20.290;2023-03-23T09:21:54;98425.89;;;16.65;57.43
34235;BME280;20500;49.856;20.290;2023-03-23T09:24:59;98428.36;;;16.71;57.15
34235;BME280;20500;49.856;20.290;2023-03-23T09:28:05;98432.38;;;16.75;56.71
34235;BME280;20500;49.856;20.290;2023-03-23T09:31:10;98434.39;;;16.81;56.62
34235;BME280;20500;49.856;20.290;2023-03-23T09:34:15;98428.77;;;16.89;56.56
34235;BME280;20500;49.856;20.290;2023-03-23T09:37:20;98427.47;;;16.97;56.30
34235;BME280;20500;49.856;20.290;2023-03-23T09:40:28;98429.41;;;17.02;56.08
34235;BME280;20500;49.856;20.290;2023-03-23T09:43:45;98425.88;;;17.04;55.76
34235;BME280;20500;49.856;20.290;2023-03-23T09:46:58;98429.45;;;17.07;55.44
34235;BME280;20500;49.856;20.290;2023-03-23T09:50:11;98430.41;;;17.08;55.40
34235;BME280;20500;49.856;20.290;2023-03-23T09:53:20;98430.11;;;17.12;55.44
34235;BME280;20500;49.856;20.290;2023-03-23T09:56:28;98429.11;;;17.20;55.30
34235;BME280;20500;49.856;20.290;2023-03-23T09:59:40;98432.33;;;17.27;55.28
34235;BME280;20500;49.856;20.290;2023-03-23T10:02:52;98428.06;;;17.33;55.15
34235;BME280;20500;49.856;20.290;2023-03-23T10:06:00;98421.27;;;17.39;54.83
34235;BME280;20500;49.856;20.290;2023-03-23T10:09:08;98419.73;;;17.42;54.74
34235;BME280;20500;49.856;20.290;2023-03-23T10:12:24;98411.90;;;17.51;54.75
34235;BME280;20500;49.856;20.290;2023-03-23T10:15:35;98406.89;;;17.61;54.54
34235;BME280;20500;49.856;20.290;2023-03-23T10:18:43;98408.27;;;17.73;54.31
34235;BME280;20500;49.856;20.290;2023-03-23T10:21:54;98405.06;;;17.88;54.04
34235;BME280;20500;49.856;20.290;2023-03-23T10:25:08;98395.39;;;18.06;53.74
34235;BME280;20500;49.856;20.290;2023-03-23T10:28:20;98394.24;;;18.28;53.55
34235;BME280;20500;49.856;20.290;2023-03-23T10:31:30;98390.89;;;18.52;53.36
34235;BME280;20500;49.856;20.290;2023-03-23T10:34:43;98386.84;;;18.72;53.16
34235;BME280;20500;49.856;20.290;2023-03-23T10:37:52;98382.34;;;18.87;52.91
34235;BME280;20500;49.856;20.290;2023-03-23T10:41:02;98382.82;;;19.00;52.79
34235;BME280;20500;49.856;20.290;2023-03-23T10:44:19;98380.34;;;19.16;52.52
34235;BME280;20500;49.856;20.290;2023-03-23T10:47:26;98376.61;;;19.21;51.92
34235;BME280;20500;49.856;20.290;2023-03-23T10:50:34;98384.09;;;19.04;51.61
34235;BME280;20500;49.856;20.290;2023-03-23T10:53:42;98386.27;;;18.91;51.69
34235;BME280;20500;49.856;20.290;2023-03-23T10:56:49;98381.00;;;18.93;51.34
34235;BME280;20500;49.856;20.290;2023-03-23T10:59:59;98375.71;;;19.08;51.24
34235;BME280;20500;49.856;20.290;2023-03-23T11:03:24;98370.06;;;19.27;51.04
34235;BME280;20500;49.856;20.290;2023-03-23T11:06:33;98361.65;;;19.46;50.95
34235;BME280;20500;49.856;20.290;2023-03-23T11:09:53;98356.66;;;19.62;50.26
34235;BME280;20500;49.856;20.290;2023-03-23T11:12:59;98350.88;;;19.76;50.27
34235;BME280;20500;49.856;20.290;2023-03-23T11:16:07;98354.21;;;19.88;50.07
34235;BME280;20500;49.856;20.290;2023-03-23T11:19:20;98347.73;;;19.97;49.80
34235;BME280;20500;49.856;20.290;2023-03-23T11:22:28;98344.53;;;20.03;49.59
34235;BME280;20500;49.856;20.290;2023-03-23T11:25:34;98340.24;;;20.01;49.37
34235;BME280;20500;49.856;20.290;2023-03-23T11:28:55;98336.67;;;20.04;49.13
34235;BME280;20500;49.856;20.290;2023-03-23T11:32:06;98336.69;;;20.15;48.89
34235;BME280;20500;49.856;20.290;2023-03-23T11:35:20;98334.17;;;20.24;48.44
34235;BME280;20500;49.856;20.290;2023-03-23T11:38:25;98326.04;;;20.35;48.44
34235;BME280;20500;49.856;20.290;2023-03-23T11:41:35;98329.24;;;20.47;48.19
34235;BME280;20500;49.856;20.290;2023-03-23T11:44:43;98321.66;;;20.47;48.26
34235;BME280;20500;49.856;20.290;2023-03-23T11:47:58;98334.41;;;20.51;47.96
34235;BME280;20500;49.856;20.290;2023-03-23T11:51:08;98332.78;;;20.60;47.69
34235;BME280;20500;49.856;20.290;2023-03-23T11:54:19;98328.56;;;20.65;47.30
34235;BME280;20500;49.856;20.290;2023-03-23T11:57:25;98324.23;;;20.78;47.23
34235;BME280;20500;49.856;20.290;2023-03-23T12:00:32;98320.03;;;20.87;46.92
34235;BME280;20500;49.856;20.290;2023-03-23T12:03:54;98314.84;;;20.91;46.61
34235;BME280;20500;49.856;20.290;2023-03-23T12:07:09;98307.80;;;20.97;46.49
34235;BME280;20500;49.856;20.290;2023-03-23T12:10:24;98305.58;;;21.06;46.30
34235;BME280;20500;49.856;20.290;2023-03-23T12:13:42;98306.39;;;21.17;45.97
34235;BME280;20500;49.856;20.290;2023-03-23T12:17:07;98301.05;;;21.29;46.06
34235;BME280;20500;49.856;20.290;2023-03-23T12:20:24;98295.52;;;21.37;45.71
34235;BME280;20500;49.856;20.290;2023-03-23T12:23:36;98294.04;;;21.43;45.67
34235;BME280;20500;49.856;20.290;2023-03-23T12:26:50;98290.75;;;21.41;45.30
34235;BME280;20500;49.856;20.290;2023-03-23T12:30:07;98290.48;;;21.43;45.11
34235;BME280;20500;49.856;20.290;2023-03-23T12:33:26;98286.59;;;21.54;44.96
34235;BME280;20500;49.856;20.290;2023-03-23T12:36:44;98280.45;;;21.60;44.97
34235;BME280;20500;49.856;20.290;2023-03-23T12:40:12;98285.02;;;21.67;44.67
34235;BME280;20500;49.856;20.290;2023-03-23T12:43:31;98280.49;;;21.74;44.53
34235;BME280;20500;49.856;20.290;2023-03-23T12:46:51;98270.81;;;21.61;44.15
34235;BME280;20500;49.856;20.290;2023-03-23T12:50:00;98271.35;;;21.28;43.86
34235;BME280;20500;49.856;20.290;2023-03-23T12:53:14;98270.39;;;21.11;43.66
34235;BME280;20500;49.856;20.290;2023-03-23T12:56:28;98277.30;;;21.00;43.52
34235;BME280;20500;49.856;20.290;2023-03-23T12:59:39;98277.23;;;20.93;43.43
34235;BME280;20500;49.856;20.290;2023-03-23T13:02:49;98280.62;;;20.86;43.29
34235;BME280;20500;49.856;20.290;2023-03-23T13:06:03;98282.52;;;20.74;43.25
34235;BME280;20500;49.856;20.290;2023-03-23T13:09:14;98286.10;;;20.60;43.05
34235;BME280;20500;49.856;20.290;2023-03-23T13:12:21;98288.43;;;20.49;42.91
34235;BME280;20500;49.856;20.290;2023-03-23T13:15:36;98284.52;;;20.37;42.95
34235;BME280;20500;49.856;20.290;2023-03-23T13:18:47;98282.05;;;20.25;42.97
34235;BME280;20500;49.856;20.290;2023-03-23T13:22:01;98288.92;;;20.14;42.76
34235;BME280;20500;49.856;20.290;2023-03-23T13:25:13;98295.61;;;20.02;42.73
34235;BME280;20500;49.856;20.290;2023-03-23T13:28:20;98298.75;;;19.88;42.62
34235;BME280;20500;49.856;20.290;2023-03-23T13:31:28;98304.00;;;19.77;42.55
34235;BME280;20500;49.856;20.290;2023-03-23T13:34:37;98299.16;;;19.64;42.36
34235;BME280;20500;49.856;20.290;2023-03-23T13:37:46;98299.99;;;19.52;42.52
34235;BME280;20500;49.856;20.290;2023-03-23T13:40:52;98302.27;;;19.38;42.44
34235;BME280;20500;49.856;20.290;2023-03-23T13:44:06;98298.65;;;19.28;42.47
34235;BME280;20500;49.856;20.290;2023-03-23T13:47:28;98299.60;;;19.19;42.51
34235;BME280;20500;49.856;20.290;2023-03-23T13:50:48;98293.88;;;19.07;42.57
34235;BME280;20500;49.856;20.290;2023-03-23T13:54:03;98295.03;;;18.94;42.64
34235;BME280;20500;49.856;20.290;2023-03-23T13:57:25;98291.61;;;18.86;42.57
34235;BME280;20500;49.856;20.290;2023-03-23T14:00:44;98289.04;;;18.80;42.65
34235;BME280;20500;49.856;20.290;2023-03-23T14:03:53;98295.23;;;18.73;42.54
34235;BME280;20500;49.856;20.290;2023-03-23T14:07:10;98291.83;;;18.68;42.57
34235;BME280;20500;49.856;20.290;2023-03-23T14:10:18;98288.61;;;18.63;42.79
34235;BME280;20500;49.856;20.290;2023-03-23T14:13:28;98291.98;;;18.61;42.91
34235;BME280;20500;49.856;20.290;2023-03-23T14:16:38;98294.27;;;18.59;42.82
34235;BME280;20500;49.856;20.290;2023-03-23T14:19:46;98294.20;;;18.54;42.87
34235;BME280;20500;49.856;20.290;2023-03-23T14:22:55;98290.42;;;18.49;42.90
34235;BME280;20500;49.856;20.290;2023-03-23T14:26:03;98286.92;;;18.50;43.02
34235;BME280;20500;49.856;20.290;2023-03-23T14:29:12;98293.23;;;18.53;42.93
34235;BME280;20500;49.856;20.290;2023-03-23T14:32:19;98293.39;;;18.52;43.11
34235;BME280;20500;49.856;20.290;2023-03-23T14:35:33;98291.57;;;18.47;43.17
34235;BME280;20500;49.856;20.290;2023-03-23T14:38:39;98291.48;;;18.42;43.17
34235;BME280;20500;49.856;20.290;2023-03-23T14:41:44;98289.29;;;18.36;43.26
34235;BME280;20500;49.856;20.290;2023-03-23T14:44:50;98286.33;;;18.29;43.35
34235;BME280;20500;49.856;20.290;2023-03-23T14:47:56;98285.99;;;18.26;43.46
34235;BME280;20500;49.856;20.290;2023-03-23T14:51:03;98283.27;;;18.24;43.62
34235;BME280;20500;49.856;20.290;2023-03-23T14:54:10;98280.26;;;18.22;43.62
34235;BME280;20500;49.856;20.290;2023-03-23T14:57:16;98278.48;;;18.22;43.48
34235;BME280;20500;49.856;20.290;2023-03-23T15:00:24;98278.27;;;18.22;43.62
34235;BME280;20500;49.856;20.290;2023-03-23T15:03:35;98269.84;;;18.21;43.73
34235;BME280;20500;49.856;20.290;2023-03-23T15:06:41;98266.38;;;18.19;43.79
34235;BME280;20500;49.856;20.290;2023-03-23T15:09:48;98263.73;;;18.15;43.87
34235;BME280;20500;49.856;20.290;2023-03-23T15:12:53;98262.04;;;18.13;43.96
34235;BME280;20500;49.856;20.290;2023-03-23T15:16:06;98265.41;;;18.11;43.90
34235;BME280;20500;49.856;20.290;2023-03-23T15:19:18;98271.05;;;18.08;43.79
34235;BME280;20500;49.856;20.290;2023-03-23T15:22:26;98274.62;;;18.04;43.86
34235;BME280;20500;49.856;20.290;2023-03-23T15:25:33;98275.81;;;18.00;43.96
34235;BME280;20500;49.856;20.290;2023-03-23T15:28:43;98271.65;;;17.97;44.15
34235;BME280;20500;49.856;20.290;2023-03-23T15:31:49;98273.53;;;17.95;44.09
34235;BME280;20500;49.856;20.290;2023-03-23T15:34:55;98277.73;;;17.92;44.16
34235;BME280;20500;49.856;20.290;2023-03-23T15:38:03;98279.91;;;17.89;44.19
34235;BME280;20500;49.856;20.290;2023-03-23T15:41:24;98278.81;;;17.85;44.21
34235;BME280;20500;49.856;20.290;2023-03-23T15:44:32;98282.08;;;17.80;44.24
34235;BME280;20500;49.856;20.290;2023-03-23T15:47:47;98280.10;;;17.75;44.18
34235;BME280;20500;49.856;20.290;2023-03-23T15:50:53;98276.84;;;17.70;44.18
34235;BME280;20500;49.856;20.290;2023-03-23T15:53:58;98277.67;;;17.66;44.35
34235;BME280;20500;49.856;20.290;2023-03-23T15:57:03;98277.60;;;17.63;44.32
34235;BME280;20500;49.856;20.290;2023-03-23T16:00:11;98282.84;;;17.58;44.26
34235;BME280;20500;49.856;20.290;2023-03-23T16:03:21;98284.39;;;17.52;44.54
34235;BME280;20500;49.856;20.290;2023-03-23T16:06:32;98285.64;;;17.45;44.65
34235;BME280;20500;49.856;20.290;2023-03-23T16:09:38;98285.70;;;17.40;44.89
34235;BME280;20500;49.856;20.290;2023-03-23T16:12:46;98284.86;;;17.34;44.86
34235;BME280;20500;49.856;20.290;2023-03-23T16:15:52;98284.52;;;17.28;44.92
34235;BME280;20500;49.856;20.290;2023-03-23T16:18:58;98289.30;;;17.22;44.95
34235;BME280;20500;49.856;20.290;2023-03-23T16:22:04;98291.73;;;17.17;45.34
34235;BME280;20500;49.856;20.290;2023-03-23T16:25:11;98288.91;;;17.11;45.58
34235;BME280;20500;49.856;20.290;2023-03-23T16:28:17;98289.38;;;17.02;45.50
34235;BME280;20500;49.856;20.290;2023-03-23T16:31:24;98290.44;;;16.92;45.43